Asuncion, Paraguay

4:12 AM PYT on September 22, 2014 (GMT -0400)
Silvio Pettirossi International | Change Station
CLOSE
Current Station
Airport
Location: Asuncion,
Elevation: 292 ft
Nearby Weather Stations

Elev 292 ft 25.25 °S, 57.52 °W | Updated 1 hour ago

Clear
Clear
61 °F
Feels Like 61 °F
N
5
Wind Variable Wind from East

Today
High -- | Low -- °F
--% Chance of Precip.
Yesterday
High -- | Low -- °F
Precip. -- in
5:39 AM 5:46 PM
Waning Crescent, 3% visible
Pressure 29.95 in
Visibility -9999.0 miles
Clouds
Dew Point 48 °F
Humidity 63%
Rainfall 0.00 in
Snow Depth Not available.
UV Not available.
Pollen Not available.
Air Quality Not available.
Flu Activity Not available.
METAR SGAS 220700Z 10004KT CAVOK 16/09 Q1014

More Conditions Fewer Conditions

Pressure 29.95 in
Visibility -9999.0 miles
Clouds
Dew Point 48 °F
Humidity 63%
Rainfall 0.00 in
Snow Depth Not available.
UV Not available.
Pollen Not available.
Air Quality Not available.
Flu Activity Not available.
METAR SGAS 220700Z 10004KT CAVOK 16/09 Q1014

More Conditions Fewer Conditions

10-Day Weather Forecast

Almanac

Astronomy

Sep. 22, 2014 Rise Set
Actual Time 5:39 AM PYT 5:46 PM PYT
Civil Twilight 5:16 AM PYT 6:09 PM PYT
Nautical Twilight 4:50 AM PYT 6:35 PM PYT
Astronomical Twilight 4:23 AM PYT 7:02 PM PYT
Moon 4:30 AM PYT 4:33 PM PYT
Length of Visible Light 12h 52m
Length of Day
12h 06m
Tomorrow will be 1m 28s longer.
Waning Crescent, 3% of the Moon is Illuminated
Today
Waning Crescent
Sep 24
New
Oct 1
First Quarter
Oct 8
Full
Oct 15
Last Quarter

Yesterday's Extremes

Country Highs Country Lows

Community

WunderPhotos

Upload Photos

1,755,395 photos uploaded!

Nearby

Snow Depth

Not available.

Earthquake Activity

City Distance Mag. Time & Date
No recent earthquake activity has been reported nearby.
Minimum magnitude displayed is 2.5.

Coastal Water Temperatures

Place Temperature
No Stations Reporting

Nearby Weather Stations